createdAt,value
2018-04-05T06:05:35.029Z,10.04
2018-04-05T06:08:02.793Z,10.94
2018-04-05T06:10:30.351Z,11.27
2018-04-05T06:12:57.928Z,11.49
2018-04-05T06:15:25.598Z,11.57
2018-04-05T06:17:53.303Z,11.75
2018-04-05T06:20:20.867Z,11.67
2018-04-05T06:22:48.449Z,11.61
2018-04-05T06:25:16.044Z,11.77
2018-04-05T06:27:43.616Z,12.24
2018-04-05T06:30:11.427Z,12.31
2018-04-05T06:32:38.965Z,12.91
2018-04-05T06:35:06.556Z,12.71
2018-04-05T06:37:34.264Z,12.59
2018-04-05T06:40:01.850Z,12.51
2018-04-05T06:42:29.533Z,12.25
2018-04-05T06:44:57.233Z,12.27
2018-04-05T06:47:24.971Z,12.27
2018-04-05T06:49:52.624Z,12.57
2018-04-05T06:52:20.387Z,13.10
2018-04-05T06:54:48.211Z,12.99
2018-04-05T06:57:15.743Z,12.41
2018-04-05T06:59:43.428Z,12.12
2018-04-05T07:02:11.089Z,12.41
2018-04-05T07:04:38.617Z,12.39
2018-04-05T07:07:06.164Z,12.71
2018-04-05T07:09:33.857Z,12.58
2018-04-05T07:12:02.398Z,12.46
2018-04-05T07:14:30.022Z,12.55
2018-04-05T07:16:57.697Z,13.50
2018-04-05T07:19:25.209Z,14.08
2018-04-05T07:21:52.854Z,14.59
2018-04-05T07:24:20.467Z,14.28
2018-04-05T07:26:48.048Z,14.07
2018-04-05T07:29:15.678Z,13.78
2018-04-05T07:31:43.229Z,13.16
2018-04-05T07:34:10.948Z,12.94
2018-04-05T07:36:38.510Z,13.25
2018-04-05T07:39:06.063Z,12.42
2018-04-05T07:41:33.783Z,12.71
2018-04-05T07:44:01.393Z,13.11
2018-04-05T07:46:28.943Z,13.17
2018-04-05T07:48:56.578Z,13.66
2018-04-05T07:51:24.122Z,13.52
2018-04-05T07:53:51.663Z,13.41
2018-04-05T07:56:19.389Z,14.14
2018-04-05T07:58:47.060Z,13.73
2018-04-05T08:01:14.972Z,13.71
2018-04-05T08:03:42.638Z,14.00
2018-04-05T08:06:10.333Z,14.11
2018-04-05T08:08:37.948Z,14.10
2018-04-05T08:11:05.559Z,13.57
2018-04-05T08:13:33.210Z,13.69
2018-04-05T08:16:00.776Z,13.27
2018-04-05T08:18:28.335Z,13.21
2018-04-05T08:20:56.101Z,13.14
2018-04-05T08:23:23.721Z,13.13
2018-04-05T08:25:51.264Z,13.13
2018-04-05T08:28:18.904Z,13.89
2018-04-05T08:30:46.521Z,13.94
2018-04-05T08:33:14.269Z,15.14
2018-04-05T08:35:41.810Z,15.36
2018-04-05T08:38:09.487Z,15.07
2018-04-05T08:40:37.108Z,14.56
2018-04-05T08:43:04.882Z,14.40
2018-04-05T08:45:32.545Z,13.76
2018-04-05T08:48:00.346Z,13.33
2018-04-05T08:50:27.988Z,13.29
2018-04-05T08:52:55.524Z,12.89
2018-04-05T08:55:23.151Z,13.10
2018-04-05T08:57:50.756Z,13.62
2018-04-05T09:00:18.444Z,13.73
2018-04-05T09:02:46.156Z,13.54
2018-04-05T09:05:14.076Z,13.39
2018-04-05T09:07:41.599Z,13.61
2018-04-05T09:10:09.135Z,13.73
2018-04-05T09:12:36.759Z,13.67
2018-04-05T09:15:04.415Z,13.03
2018-04-05T09:17:32.030Z,12.56
2018-04-05T09:19:59.780Z,11.98
2018-04-05T09:22:27.445Z,11.28
2018-04-05T09:24:55.184Z,11.39
2018-04-05T09:27:22.758Z,11.82
2018-04-05T09:29:50.283Z,12.27
2018-04-05T09:32:17.894Z,12.84
2018-04-05T09:34:45.428Z,13.90
2018-04-05T09:37:12.950Z,14.99
2018-04-05T09:39:40.517Z,15.80
2018-04-05T09:42:08.053Z,15.54
2018-04-05T09:44:35.753Z,16.70
2018-04-05T09:47:03.343Z,17.70
2018-04-05T09:49:30.966Z,15.87
2018-04-05T09:51:58.625Z,14.55
2018-04-05T09:54:26.208Z,13.69
2018-04-05T09:56:53.784Z,13.55
2018-04-05T09:59:21.360Z,13.81
2018-04-05T10:01:54.455Z,13.92
2018-04-05T10:04:22.105Z,13.31
2018-04-05T10:06:49.815Z,13.60
2018-04-05T10:09:17.686Z,17.40
2018-04-05T10:11:45.278Z,18.93
2018-04-05T10:14:12.895Z,20.84
2018-04-05T10:16:40.616Z,17.94
2018-04-05T10:19:08.165Z,16.31
2018-04-05T10:21:35.715Z,18.73
2018-04-05T10:24:03.384Z,20.04
2018-04-05T10:26:30.921Z,18.93
2018-04-05T10:28:58.445Z,19.41
2018-04-05T10:31:26.037Z,18.32
2018-04-05T10:33:53.664Z,17.46
2018-04-05T10:36:21.234Z,17.52
2018-04-05T10:38:48.818Z,17.05
2018-04-05T10:41:16.424Z,17.39
2018-04-05T10:43:44.164Z,18.00
2018-04-05T10:46:11.710Z,17.89
2018-04-05T10:48:39.374Z,16.09
2018-04-05T10:51:07.019Z,14.62
2018-04-05T10:53:34.668Z,14.66
2018-04-05T10:56:02.239Z,16.86
2018-04-05T10:58:29.848Z,19.29
2018-04-05T11:00:57.515Z,20.29
2018-04-05T11:03:25.235Z,18.31
2018-04-05T11:05:52.965Z,17.43
2018-04-05T11:08:20.793Z,17.17
2018-04-05T11:10:48.560Z,16.66
2018-04-05T11:13:16.121Z,15.08
2018-04-05T11:15:43.716Z,15.39
2018-04-05T11:18:11.264Z,15.32
2018-04-05T11:20:38.941Z,16.47
2018-04-05T11:23:06.560Z,17.21
2018-04-05T11:25:34.129Z,15.66
2018-04-05T11:28:01.684Z,15.29
2018-04-05T11:30:29.525Z,14.80
2018-04-05T11:32:57.325Z,15.16
2018-04-05T11:35:24.990Z,14.84
2018-04-05T11:37:52.634Z,14.77
2018-04-05T11:40:20.476Z,14.35
2018-04-05T11:42:48.145Z,14.46
2018-04-05T11:45:15.672Z,14.05
2018-04-05T11:47:43.374Z,13.00
2018-04-05T11:50:10.910Z,11.89
2018-04-05T11:52:38.483Z,10.90
2018-04-05T11:55:06.174Z,10.94
2018-04-05T11:57:33.719Z,10.64
2018-04-05T12:00:01.541Z,10.80
2018-04-05T12:02:29.125Z,10.97
2018-04-05T12:04:56.688Z,11.11
2018-04-05T12:07:24.254Z,11.65
2018-04-05T12:09:51.851Z,11.88
2018-04-05T12:12:19.474Z,12.61
2018-04-05T12:14:47.099Z,12.60
2018-04-05T12:17:14.659Z,13.27
2018-04-05T12:19:42.215Z,13.28
2018-04-05T12:22:09.786Z,13.30
2018-04-05T12:24:37.342Z,13.37
2018-04-05T12:27:04.982Z,14.47
2018-04-05T12:29:32.572Z,14.93
2018-04-05T12:32:00.624Z,15.05
2018-04-05T12:34:28.493Z,16.22
2018-04-05T12:36:56.064Z,14.89
2018-04-05T12:39:23.721Z,13.52
2018-04-05T12:41:51.248Z,13.68
2018-04-05T12:44:18.864Z,12.70
2018-04-05T12:46:46.480Z,11.97
2018-04-05T12:49:14.250Z,11.95
2018-04-05T12:51:41.896Z,12.13
2018-04-05T12:54:09.893Z,12.00
2018-04-05T12:56:37.456Z,12.25
2018-04-05T12:59:05.023Z,12.67
2018-04-05T13:01:32.731Z,12.37
2018-04-05T13:04:00.403Z,12.67
2018-04-05T13:06:28.158Z,12.20
2018-04-05T13:08:55.709Z,11.94
2018-04-05T13:11:23.266Z,12.11
2018-04-05T13:13:50.873Z,12.11
2018-04-05T13:16:19.395Z,11.94
2018-04-05T13:18:47.034Z,11.60
2018-04-05T13:21:14.590Z,11.56
2018-04-05T13:23:42.212Z,11.54
2018-04-05T13:26:09.756Z,11.62
2018-04-05T13:28:37.344Z,12.04
2018-04-05T13:31:05.922Z,12.50
2018-04-05T13:33:33.454Z,12.54
2018-04-05T13:36:01.309Z,11.95
2018-04-05T13:38:28.915Z,12.20
2018-04-05T13:40:56.520Z,13.60
2018-04-05T13:43:24.112Z,13.52
2018-04-05T13:45:51.659Z,14.88
2018-04-05T13:48:19.281Z,15.03
2018-04-05T13:50:47.285Z,14.27
2018-04-05T13:53:14.975Z,13.18
2018-04-05T13:55:42.592Z,12.87
2018-04-05T13:58:10.150Z,12.83
2018-04-05T14:00:37.667Z,12.52
2018-04-05T14:03:05.210Z,12.79
2018-04-05T14:05:33.009Z,12.37
2018-04-05T14:08:00.642Z,12.61
2018-04-05T14:10:28.218Z,12.93
2018-04-05T14:12:55.737Z,13.38
2018-04-05T14:15:23.446Z,13.49
2018-04-05T14:17:51.044Z,14.08
2018-04-05T14:20:18.747Z,15.57
2018-04-05T14:22:46.370Z,16.12
2018-04-05T14:25:14.044Z,16.62
2018-04-05T14:27:41.655Z,15.72
2018-04-05T14:30:09.656Z,14.43
2018-04-05T14:32:37.215Z,14.51
2018-04-05T14:35:04.777Z,14.67
2018-04-05T14:37:32.391Z,13.53
2018-04-05T14:40:00.051Z,14.17
2018-04-05T14:42:27.721Z,13.74
2018-04-05T14:44:55.297Z,13.66
2018-04-05T14:47:22.939Z,13.58
2018-04-05T14:49:50.656Z,13.29
2018-04-05T14:52:18.353Z,13.31
2018-04-05T14:54:45.942Z,13.44
2018-04-05T14:57:13.702Z,13.24
2018-04-05T14:59:41.337Z,12.97
2018-04-05T15:02:08.935Z,13.02
2018-04-05T15:04:37.056Z,12.83
2018-04-05T15:07:04.831Z,12.66
2018-04-05T15:09:32.358Z,12.54
2018-04-05T15:11:59.892Z,12.54
2018-04-05T15:14:27.552Z,12.51
2018-04-05T15:16:55.131Z,12.59
2018-04-05T15:19:22.775Z,12.39
2018-04-05T15:21:50.328Z,12.55
2018-04-05T15:24:17.920Z,12.34
2018-04-05T15:26:45.487Z,12.21
2018-04-05T15:29:13.862Z,12.21
2018-04-05T15:31:41.541Z,12.19
2018-04-05T15:34:09.180Z,12.25
2018-04-05T15:36:36.882Z,12.25
2018-04-05T15:39:04.456Z,11.90
2018-04-05T15:41:32.238Z,11.98
2018-04-05T15:43:59.781Z,12.13
2018-04-05T15:46:27.325Z,12.02
2018-04-05T15:48:55.013Z,11.80
2018-04-05T15:51:22.561Z,11.84
2018-04-05T15:53:50.309Z,12.18
2018-04-05T15:56:17.836Z,11.92
2018-04-05T15:58:45.603Z,12.06
2018-04-05T16:01:13.303Z,11.92
2018-04-05T16:03:40.827Z,11.78
2018-04-05T16:06:08.634Z,11.82
2018-04-05T16:08:36.200Z,12.05
2018-04-05T16:11:03.965Z,11.95
2018-04-05T16:13:31.692Z,11.92
2018-04-05T16:15:59.256Z,11.83
2018-04-05T16:18:27.131Z,11.61
2018-04-05T16:20:54.774Z,11.60
2018-04-05T16:23:22.337Z,11.22
2018-04-05T16:25:50.017Z,11.12
2018-04-05T16:28:17.672Z,11.25
2018-04-05T16:30:45.282Z,10.93
2018-04-05T16:33:12.847Z,10.61
2018-04-05T16:35:40.606Z,10.61
2018-04-05T16:38:09.104Z,10.57
2018-04-05T16:40:37.267Z,10.46
2018-04-05T16:43:04.947Z,10.52
2018-04-05T16:45:32.671Z,10.57
2018-04-05T16:48:00.265Z,10.30
2018-04-05T16:50:27.821Z,10.24
2018-04-05T16:52:55.546Z,10.15
2018-04-05T16:55:23.088Z,10.14
2018-04-05T16:57:50.874Z,10.22
2018-04-05T17:00:18.835Z,10.00
2018-04-05T17:02:46.714Z,10.00
2018-04-05T17:05:14.982Z,9.92
2018-04-05T17:07:42.644Z,9.81
2018-04-05T17:10:10.390Z,9.79
2018-04-05T17:12:42.192Z,9.65
2018-04-05T17:15:10.283Z,9.51
2018-04-05T17:17:39.885Z,9.54
2018-04-05T17:20:07.914Z,9.60
2018-04-05T17:22:35.667Z,9.64
2018-04-05T17:25:03.338Z,9.23
2018-04-05T17:27:30.922Z,9.23
2018-04-05T17:29:58.718Z,9.19
2018-04-05T17:32:26.357Z,9.15
2018-04-05T17:34:54.138Z,9.08
2018-04-05T17:37:21.706Z,8.94
2018-04-05T17:39:49.506Z,8.77
2018-04-05T17:42:17.578Z,8.89
2018-04-05T17:44:45.452Z,8.84
2018-04-05T17:47:13.073Z,8.77
2018-04-05T17:49:40.648Z,8.68
2018-04-05T17:52:08.482Z,8.63
2018-04-05T17:54:36.067Z,8.59
2018-04-05T17:57:03.607Z,8.62
2018-04-05T17:59:31.261Z,8.61
2018-04-05T18:01:58.906Z,8.66
2018-04-05T18:04:26.542Z,8.58
2018-04-05T18:06:54.239Z,8.63
2018-04-05T18:09:21.856Z,8.61
2018-04-05T18:11:49.541Z,8.47
2018-04-05T18:14:17.279Z,8.48
2018-04-05T18:16:45.113Z,8.65
2018-04-05T18:19:13.043Z,8.55
2018-04-05T18:21:40.698Z,8.53
2018-04-05T18:24:08.263Z,8.48
2018-04-05T18:26:36.013Z,8.53
2018-04-05T18:29:03.626Z,8.47
2018-04-05T18:31:31.196Z,8.46
2018-04-05T18:33:58.766Z,8.46
2018-04-05T18:36:26.504Z,8.45
2018-04-05T18:38:54.115Z,8.37
2018-04-05T18:41:21.883Z,8.28
2018-04-05T18:43:49.721Z,8.16
2018-04-05T18:46:17.530Z,7.92
2018-04-05T18:48:45.150Z,7.92
2018-04-05T18:51:13.093Z,7.95
2018-04-05T18:53:40.783Z,8.00
2018-04-05T18:56:08.511Z,8.00
2018-04-05T18:58:36.223Z,7.93
2018-04-05T19:01:04.092Z,7.78
2018-04-05T19:03:31.634Z,7.77
2018-04-05T19:05:59.493Z,7.67
2018-04-05T19:08:27.126Z,7.68
2018-04-05T19:10:54.839Z,7.65
2018-04-05T19:13:22.683Z,7.51
2018-04-05T19:15:50.384Z,7.50
2018-04-05T19:18:18.238Z,7.77
2018-04-05T19:20:45.847Z,6.68
2018-04-05T19:23:13.512Z,5.91
2018-04-05T19:25:41.404Z,5.91
2018-04-05T19:28:09.062Z,6.08
2018-04-05T19:30:36.863Z,6.49
2018-04-05T19:33:04.627Z,6.62
2018-04-05T19:35:32.322Z,6.99
2018-04-05T19:37:59.924Z,7.19
2018-04-05T19:40:27.712Z,6.61
2018-04-05T19:42:55.402Z,6.92
2018-04-05T19:45:23.121Z,6.46
2018-04-05T19:47:50.730Z,6.32
2018-04-05T19:50:18.365Z,6.45
2018-04-05T19:52:46.197Z,6.67
2018-04-05T19:55:13.803Z,6.72
2018-04-05T19:57:41.624Z,6.73
2018-04-05T20:00:09.404Z,6.41
2018-04-05T20:02:37.159Z,6.64
2018-04-05T20:05:04.848Z,6.69
2018-04-05T20:07:32.608Z,6.78
2018-04-05T20:10:00.471Z,6.44
2018-04-05T20:12:28.254Z,6.68
2018-04-05T20:14:55.903Z,6.67
2018-04-05T20:17:23.519Z,6.57
2018-04-05T20:19:51.097Z,6.53
2018-04-05T20:22:18.658Z,6.30
2018-04-05T20:24:46.353Z,6.52
2018-04-05T20:27:13.957Z,6.38
2018-04-05T20:29:41.836Z,6.25
2018-04-05T20:32:09.407Z,6.31
2018-04-05T20:34:37.179Z,6.67
2018-04-05T20:37:04.906Z,7.01
2018-04-05T20:39:32.774Z,6.79
2018-04-05T20:42:00.349Z,6.65
2018-04-05T20:44:28.188Z,6.41
2018-04-05T20:46:55.928Z,6.09
2018-04-05T20:49:23.748Z,6.21
2018-04-05T20:51:51.989Z,6.32
2018-04-05T20:54:19.709Z,6.44
2018-04-05T20:56:47.284Z,6.34
2018-04-05T20:59:14.913Z,6.00
2018-04-05T21:01:42.668Z,5.84
2018-04-05T21:04:10.209Z,5.50
2018-04-05T21:06:38.059Z,5.51
2018-04-05T21:09:06.544Z,5.58
2018-04-05T21:11:34.513Z,5.64
2018-04-05T21:14:02.029Z,5.13
2018-04-05T21:16:29.560Z,4.61
2018-04-05T21:18:57.350Z,4.83
2018-04-05T21:21:24.895Z,4.91
2018-04-05T21:23:52.494Z,4.43
2018-04-05T21:26:20.186Z,4.17
2018-04-05T21:28:47.794Z,4.45
2018-04-05T21:31:15.715Z,4.46
2018-04-05T21:33:43.492Z,4.61
2018-04-05T21:36:11.324Z,4.44
2018-04-05T21:38:38.889Z,4.10
2018-04-05T21:41:06.564Z,4.31
2018-04-05T21:43:34.160Z,4.48
2018-04-05T21:46:01.841Z,4.44
2018-04-05T21:48:29.514Z,4.36
2018-04-05T21:50:57.068Z,3.52
2018-04-05T21:53:24.984Z,3.58
2018-04-05T21:55:52.539Z,3.89
2018-04-05T21:58:20.084Z,3.79
2018-04-05T22:00:47.615Z,3.97
2018-04-05T22:03:15.333Z,3.87
2018-04-05T22:05:43.128Z,2.76
2018-04-05T22:08:10.694Z,2.59
2018-04-05T22:10:38.439Z,3.03
2018-04-05T22:13:05.980Z,3.25
2018-04-05T22:15:33.585Z,3.03
2018-04-05T22:18:01.232Z,3.00
2018-04-05T22:20:29.864Z,2.91
2018-04-05T22:22:57.400Z,3.13
2018-04-05T22:25:25.118Z,2.92
2018-04-05T22:27:52.879Z,3.17
2018-04-05T22:30:20.628Z,2.96
2018-04-05T22:32:48.314Z,2.83
2018-04-05T22:35:15.888Z,3.08
2018-04-05T22:37:43.738Z,2.53
2018-04-05T22:40:11.519Z,2.15
2018-04-05T22:42:39.117Z,2.41
2018-04-05T22:45:06.738Z,2.86
2018-04-05T22:47:34.450Z,2.80
2018-04-05T22:50:02.024Z,2.68
2018-04-05T22:52:29.679Z,2.84
2018-04-05T22:54:57.215Z,2.40
2018-04-05T22:57:25.043Z,2.51
2018-04-05T22:59:52.639Z,1.92
2018-04-05T23:02:21.210Z,1.62
2018-04-05T23:04:49.524Z,1.65
2018-04-05T23:07:17.084Z,1.97
2018-04-05T23:09:44.915Z,2.06
2018-04-05T23:12:12.527Z,1.74
2018-04-05T23:14:40.122Z,1.61
2018-04-05T23:17:07.677Z,1.60
2018-04-05T23:19:35.315Z,1.63
2018-04-05T23:22:02.869Z,2.05
2018-04-05T23:24:30.404Z,2.09
2018-04-05T23:26:58.131Z,1.61
2018-04-05T23:29:25.683Z,1.33
2018-04-05T23:31:53.392Z,1.86
2018-04-05T23:34:20.970Z,1.70
2018-04-05T23:36:48.706Z,1.68
2018-04-05T23:39:16.525Z,1.66
2018-04-05T23:41:44.251Z,1.33
2018-04-05T23:44:12.104Z,1.61
2018-04-05T23:46:39.718Z,1.69
2018-04-05T23:49:07.255Z,1.44
2018-04-05T23:51:34.944Z,1.03
2018-04-05T23:54:02.525Z,1.41
2018-04-05T23:56:30.074Z,2.12
2018-04-05T23:58:58.234Z,2.41
